createdAt,value
2023-04-28T00:00:01.743Z,27.20
2023-04-28T00:01:01.762Z,27.23
2023-04-28T00:02:01.779Z,27.24
2023-04-28T00:03:01.933Z,27.22
2023-04-28T00:04:02.165Z,27.22
2023-04-28T00:05:01.921Z,27.23
2023-04-28T00:06:01.957Z,27.20
2023-04-28T00:07:01.929Z,27.20
2023-04-28T00:08:01.945Z,27.22
2023-04-28T00:09:01.953Z,27.20
2023-04-28T00:10:01.968Z,27.20
2023-04-28T00:11:01.987Z,27.22
2023-04-28T00:12:02.043Z,27.18
2023-04-28T00:13:02.058Z,27.22
2023-04-28T00:14:02.103Z,27.20
2023-04-28T00:15:02.142Z,27.22
2023-04-28T00:16:02.203Z,27.20
2023-04-28T00:17:02.225Z,27.22
2023-04-28T00:18:02.256Z,27.22
2023-04-28T00:19:02.202Z,27.22
2023-04-28T00:20:02.242Z,27.23
2023-04-28T00:21:02.212Z,27.20
2023-04-28T00:22:02.200Z,27.24
2023-04-28T00:23:02.242Z,27.22
2023-04-28T00:24:02.230Z,27.18
2023-04-28T00:25:02.263Z,27.20
2023-04-28T00:26:02.301Z,27.18
2023-04-28T00:27:02.303Z,27.22
2023-04-28T00:28:02.255Z,27.20
2023-04-28T00:29:02.316Z,27.20
2023-04-28T00:30:02.319Z,27.20
2023-04-28T00:31:02.361Z,27.18
2023-04-28T00:32:02.512Z,27.20
2023-04-28T00:33:02.496Z,27.18
2023-04-28T00:34:02.472Z,27.18
2023-04-28T00:35:02.517Z,27.20
2023-04-28T00:36:02.583Z,27.18
2023-04-28T00:37:02.600Z,27.18
2023-04-28T00:38:02.636Z,27.18
2023-04-28T00:39:02.665Z,27.17
2023-04-28T00:40:02.708Z,27.20
2023-04-28T00:41:02.752Z,27.17
2023-04-28T00:42:02.824Z,27.18
2023-04-28T00:43:02.817Z,27.18
2023-04-28T00:44:02.873Z,27.18
2023-04-28T00:45:02.880Z,27.22
2023-04-28T00:46:02.933Z,27.20
2023-04-28T00:47:02.890Z,27.20
2023-04-28T00:48:02.955Z,27.18
2023-04-28T00:49:02.943Z,27.18
2023-04-28T00:50:02.949Z,27.17
2023-04-28T00:51:02.942Z,27.17
2023-04-28T00:52:02.972Z,27.20
2023-04-28T00:53:02.969Z,27.18
2023-04-28T00:54:02.987Z,27.16
2023-04-28T00:55:02.973Z,27.20
2023-04-28T00:56:02.991Z,27.17
2023-04-28T00:57:03.016Z,27.16
2023-04-28T00:58:03.004Z,27.18
2023-04-28T00:59:03.013Z,27.18
2023-04-28T01:00:03.017Z,27.17
2023-04-28T01:01:03.064Z,27.18
2023-04-28T01:02:03.055Z,27.18
2023-04-28T01:03:03.163Z,27.20
2023-04-28T01:04:03.166Z,27.17
2023-04-28T01:05:03.044Z,27.18
2023-04-28T01:06:03.039Z,27.16
2023-04-28T01:07:03.053Z,27.16
2023-04-28T01:08:03.046Z,27.16
2023-04-28T01:09:03.043Z,27.17
2023-04-28T01:10:03.073Z,27.17
2023-04-28T01:11:03.081Z,27.18
2023-04-28T01:12:03.062Z,27.14
2023-04-28T01:13:03.068Z,27.17
2023-04-28T01:14:03.038Z,27.16
2023-04-28T01:15:03.080Z,27.16
2023-04-28T01:16:03.038Z,27.16
2023-04-28T01:17:03.090Z,27.17
2023-04-28T01:18:03.056Z,27.16
2023-04-28T01:19:03.048Z,27.17
2023-04-28T01:20:03.048Z,27.17
2023-04-28T01:21:03.043Z,27.18
2023-04-28T01:22:03.025Z,27.17
2023-04-28T01:23:03.040Z,27.16
2023-04-28T01:24:03.051Z,27.16
2023-04-28T01:25:03.020Z,27.14
2023-04-28T01:26:03.035Z,27.16
2023-04-28T01:27:03.028Z,27.17
2023-04-28T01:28:03.034Z,27.14
2023-04-28T01:29:03.050Z,27.17
2023-04-28T01:30:03.070Z,27.16
2023-04-28T01:31:03.115Z,27.16
2023-04-28T01:32:03.106Z,27.18
2023-04-28T01:33:03.060Z,27.17
2023-04-28T01:34:03.029Z,27.14
2023-04-28T01:35:03.080Z,27.16
2023-04-28T01:36:03.045Z,27.16
2023-04-28T01:37:03.062Z,27.13
2023-04-28T01:38:03.040Z,27.14
2023-04-28T01:39:03.086Z,27.17
2023-04-28T01:40:03.056Z,27.17
2023-04-28T01:41:03.044Z,27.16
2023-04-28T01:42:03.104Z,27.13
2023-04-28T01:43:03.090Z,27.14
2023-04-28T01:44:03.112Z,27.14
2023-04-28T01:45:03.133Z,27.16
2023-04-28T01:46:03.200Z,27.16
2023-04-28T01:47:03.186Z,27.14
2023-04-28T01:48:03.244Z,27.14
2023-04-28T01:49:03.209Z,27.16
2023-04-28T01:50:03.229Z,27.14
2023-04-28T01:51:03.225Z,27.14
2023-04-28T01:52:03.278Z,27.14
2023-04-28T01:53:03.286Z,27.14
2023-04-28T01:54:03.289Z,27.13
2023-04-28T01:55:03.293Z,27.14
2023-04-28T01:56:03.276Z,27.17
2023-04-28T01:57:03.380Z,27.14
2023-04-28T01:58:03.343Z,27.17
2023-04-28T01:59:03.394Z,27.16
2023-04-28T02:00:03.381Z,27.16
2023-04-28T02:01:03.546Z,27.16
2023-04-28T02:02:03.472Z,27.14
2023-04-28T02:03:03.530Z,27.14
2023-04-28T02:04:03.603Z,27.14
2023-04-28T02:05:03.456Z,27.16
2023-04-28T02:06:03.498Z,27.14
2023-04-28T02:07:03.486Z,27.14
2023-04-28T02:08:03.482Z,27.14
2023-04-28T02:09:03.509Z,27.13
2023-04-28T02:10:03.481Z,27.16
2023-04-28T02:11:03.511Z,27.16
2023-04-28T02:12:03.525Z,27.14
2023-04-28T02:13:03.502Z,27.14
2023-04-28T02:14:03.558Z,27.16
2023-04-28T02:15:03.524Z,27.14
2023-04-28T02:16:03.632Z,27.14
2023-04-28T02:17:03.565Z,27.16
2023-04-28T02:18:03.599Z,27.14
2023-04-28T02:19:03.612Z,27.13
2023-04-28T02:20:03.673Z,27.16
2023-04-28T02:21:03.666Z,27.14
2023-04-28T02:22:03.723Z,27.13
2023-04-28T02:23:03.725Z,27.16
2023-04-28T02:24:03.747Z,27.13
2023-04-28T02:25:03.782Z,27.14
2023-04-28T02:26:03.777Z,27.14
2023-04-28T02:27:03.821Z,27.14
2023-04-28T02:28:03.846Z,27.13
2023-04-28T02:29:03.872Z,27.13
2023-04-28T02:30:03.906Z,27.16
2023-04-28T02:31:03.989Z,27.16
2023-04-28T02:32:03.957Z,27.13
2023-04-28T02:33:04.031Z,27.16
2023-04-28T02:34:04.013Z,27.13
2023-04-28T02:35:04.028Z,27.16
2023-04-28T02:36:04.020Z,27.14
2023-04-28T02:37:04.067Z,27.13
2023-04-28T02:38:04.143Z,27.13
2023-04-28T02:39:04.097Z,27.14
2023-04-28T02:40:04.107Z,27.13
2023-04-28T02:41:04.118Z,27.14
2023-04-28T02:42:04.141Z,27.11
2023-04-28T02:43:04.177Z,27.13
2023-04-28T02:44:04.183Z,27.14
2023-04-28T02:45:04.210Z,27.10
2023-04-28T02:46:04.206Z,27.14
2023-04-28T02:47:04.239Z,27.11
2023-04-28T02:48:04.297Z,27.11
2023-04-28T02:49:04.290Z,27.13
2023-04-28T02:50:04.341Z,27.14
2023-04-28T02:51:04.325Z,27.13
2023-04-28T02:52:04.329Z,27.10
2023-04-28T02:53:04.324Z,27.11
2023-04-28T02:54:04.318Z,27.11
2023-04-28T02:55:04.300Z,27.10
2023-04-28T02:56:04.355Z,27.13
2023-04-28T02:57:04.301Z,27.11
2023-04-28T02:58:04.315Z,27.13
2023-04-28T02:59:04.325Z,27.14
2023-04-28T03:00:04.322Z,27.11
2023-04-28T03:01:04.340Z,27.11
2023-04-28T03:02:04.292Z,27.11
2023-04-28T03:03:04.397Z,27.11
2023-04-28T03:04:04.505Z,27.11
2023-04-28T03:05:04.391Z,27.11
2023-04-28T03:06:04.310Z,27.11
2023-04-28T03:07:04.320Z,27.14
2023-04-28T03:08:04.353Z,27.10
2023-04-28T03:09:04.305Z,27.11
2023-04-28T03:10:04.319Z,27.14
2023-04-28T03:11:04.301Z,27.13
2023-04-28T03:12:04.351Z,27.11
2023-04-28T03:13:04.322Z,27.13
2023-04-28T03:14:04.313Z,27.10
2023-04-28T03:15:04.317Z,27.11
2023-04-28T03:16:04.336Z,27.10
2023-04-28T03:17:04.291Z,27.13
2023-04-28T03:18:04.329Z,27.09
2023-04-28T03:19:04.311Z,27.11
2023-04-28T03:20:04.300Z,27.11
2023-04-28T03:21:04.293Z,27.11
2023-04-28T03:22:04.368Z,27.13
2023-04-28T03:23:04.309Z,27.11
2023-04-28T03:24:05.566Z,27.11
2023-04-28T03:25:04.278Z,27.11
2023-04-28T03:26:04.266Z,27.11
2023-04-28T03:27:04.318Z,27.13
2023-04-28T03:28:04.334Z,27.11
2023-04-28T03:29:04.312Z,27.10
2023-04-28T03:30:04.301Z,27.16
2023-04-28T03:31:04.334Z,27.11
2023-04-28T03:32:04.327Z,27.11
2023-04-28T03:33:04.384Z,27.10
2023-04-28T03:34:04.311Z,27.11
2023-04-28T03:35:04.342Z,27.11
2023-04-28T03:36:04.298Z,27.11
2023-04-28T03:37:04.338Z,27.11
2023-04-28T03:38:04.343Z,27.11
2023-04-28T03:39:04.298Z,27.10
2023-04-28T03:40:04.306Z,27.11
2023-04-28T03:41:04.310Z,27.09
2023-04-28T03:42:04.301Z,27.11
2023-04-28T03:43:04.997Z,27.11
2023-04-28T03:44:04.318Z,27.11
2023-04-28T03:45:04.288Z,27.10
2023-04-28T03:46:04.329Z,27.09
2023-04-28T03:47:04.324Z,27.10
2023-04-28T03:48:04.323Z,27.09
2023-04-28T03:49:04.266Z,27.11
2023-04-28T03:50:04.283Z,27.09
2023-04-28T03:51:04.286Z,27.10
2023-04-28T03:52:04.259Z,27.10
2023-04-28T03:53:04.262Z,27.11
2023-04-28T03:54:04.291Z,27.11
2023-04-28T03:55:04.299Z,27.10
2023-04-28T03:56:04.268Z,27.11
2023-04-28T03:57:04.277Z,27.10
2023-04-28T03:58:04.269Z,27.11
2023-04-28T03:59:04.295Z,27.10
2023-04-28T04:00:04.263Z,27.10
2023-04-28T04:01:04.240Z,27.10
2023-04-28T04:02:04.271Z,27.11
2023-04-28T04:03:04.349Z,27.13
2023-04-28T04:04:04.476Z,27.11
2023-04-28T04:05:04.618Z,27.10
2023-04-28T04:06:04.277Z,27.10
2023-04-28T04:07:04.270Z,27.13
2023-04-28T04:08:04.282Z,27.11
2023-04-28T04:09:04.285Z,27.11
2023-04-28T04:10:04.794Z,27.10
2023-04-28T04:11:04.293Z,27.09
2023-04-28T04:12:04.305Z,27.10
2023-04-28T04:13:04.297Z,27.10
2023-04-28T04:14:04.303Z,27.10
2023-04-28T04:15:04.331Z,27.11
2023-04-28T04:16:04.362Z,27.13
2023-04-28T04:17:04.327Z,27.10
2023-04-28T04:18:04.372Z,27.10
2023-04-28T04:19:04.318Z,27.07
2023-04-28T04:20:04.334Z,27.10
2023-04-28T04:21:04.306Z,27.09
2023-04-28T04:22:04.296Z,27.09
2023-04-28T04:23:04.291Z,27.10
2023-04-28T04:24:04.291Z,27.10
2023-04-28T04:25:04.317Z,27.11
2023-04-28T04:26:04.289Z,27.10
2023-04-28T04:27:04.280Z,27.11
2023-04-28T04:28:04.283Z,27.09
2023-04-28T04:29:04.296Z,27.13
2023-04-28T04:30:04.301Z,27.11
2023-04-28T04:31:04.316Z,27.07
2023-04-28T04:32:04.337Z,27.10
2023-04-28T04:33:04.359Z,27.10
2023-04-28T04:34:04.308Z,27.10
2023-04-28T04:35:04.312Z,27.10
2023-04-28T04:36:04.294Z,27.10
2023-04-28T04:37:04.326Z,27.11
2023-04-28T04:38:04.290Z,27.10
2023-04-28T04:39:04.310Z,27.13
2023-04-28T04:40:04.278Z,27.10
2023-04-28T04:41:04.276Z,27.11
2023-04-28T04:42:16.784Z,27.13
2023-04-28T04:43:05.283Z,27.10
2023-04-28T04:44:04.257Z,27.11
2023-04-28T04:45:04.230Z,27.11
2023-04-28T04:46:04.332Z,27.11
2023-04-28T04:47:04.252Z,27.10
2023-04-28T04:48:04.269Z,27.10
2023-04-28T04:49:04.315Z,27.13
2023-04-28T04:50:04.238Z,27.10
2023-04-28T04:51:04.292Z,27.11
2023-04-28T04:52:04.233Z,27.11
2023-04-28T04:53:04.196Z,27.11
2023-04-28T04:54:04.198Z,27.10
2023-04-28T04:55:04.185Z,27.11
2023-04-28T04:56:04.198Z,27.10
2023-04-28T04:57:04.211Z,27.11
2023-04-28T04:58:04.190Z,27.10
2023-04-28T04:59:04.190Z,27.10
2023-04-28T05:00:04.151Z,27.11
2023-04-28T05:01:04.127Z,27.09
2023-04-28T05:02:04.185Z,27.11
2023-04-28T05:03:04.273Z,27.13
2023-04-28T05:04:04.309Z,27.10
2023-04-28T05:05:16.588Z,27.10
2023-04-28T05:06:05.141Z,27.13
2023-04-28T05:07:04.109Z,27.11
2023-04-28T05:08:04.140Z,27.10
2023-04-28T05:09:04.100Z,27.11
2023-04-28T05:10:04.085Z,27.10
2023-04-28T05:11:04.110Z,27.10
2023-04-28T05:12:04.092Z,27.11
2023-04-28T05:13:04.093Z,27.10
2023-04-28T05:14:04.076Z,27.11
2023-04-28T05:15:04.035Z,27.11
2023-04-28T05:16:04.105Z,27.09
2023-04-28T05:17:04.088Z,27.13
2023-04-28T05:18:04.077Z,27.13
2023-04-28T05:19:04.007Z,27.13
2023-04-28T05:20:04.014Z,27.11
2023-04-28T05:21:04.025Z,27.13
2023-04-28T05:22:04.009Z,27.10
2023-04-28T05:23:04.032Z,27.11
2023-04-28T05:24:04.020Z,27.10
2023-04-28T05:25:04.022Z,27.11
2023-04-28T05:26:03.985Z,27.13
2023-04-28T05:27:03.978Z,27.11
2023-04-28T05:28:03.963Z,27.11
2023-04-28T05:29:04.001Z,27.10
2023-04-28T05:30:03.957Z,27.11
2023-04-28T05:31:03.994Z,27.11
2023-04-28T05:32:04.048Z,27.11
2023-04-28T05:33:04.010Z,27.10
2023-04-28T05:34:03.916Z,27.11
2023-04-28T05:35:03.920Z,27.10
2023-04-28T05:36:03.925Z,27.14
2023-04-28T05:37:03.948Z,27.11
2023-04-28T05:38:03.915Z,27.14
2023-04-28T05:39:03.916Z,27.14
2023-04-28T05:40:03.872Z,27.14
2023-04-28T05:41:03.902Z,27.17
2023-04-28T05:42:03.915Z,27.18
2023-04-28T05:43:03.901Z,27.18
2023-04-28T05:44:03.884Z,27.23
2023-04-28T05:45:03.879Z,27.23
2023-04-28T05:46:04.196Z,27.27
2023-04-28T05:47:04.331Z,27.26
2023-04-28T05:48:03.973Z,27.22
2023-04-28T05:49:03.951Z,27.22
2023-04-28T05:50:03.967Z,27.14
2023-04-28T05:51:03.983Z,27.09
2023-04-28T05:52:04.274Z,27.05
2023-04-28T05:53:04.072Z,26.96
2023-04-28T05:54:04.116Z,26.90
2023-04-28T05:55:04.193Z,26.83
2023-04-28T05:56:04.208Z,26.74
2023-04-28T05:57:04.281Z,26.67
2023-04-28T05:58:04.330Z,26.61
2023-04-28T05:59:04.358Z,26.56
2023-04-28T06:00:04.413Z,26.50
2023-04-28T06:01:04.512Z,26.45
2023-04-28T06:02:04.582Z,26.40
2023-04-28T06:03:04.835Z,26.37
2023-04-28T06:04:04.913Z,26.31
2023-04-28T06:05:04.925Z,26.28
2023-04-28T06:06:07.822Z,26.24
2023-04-28T06:07:05.735Z,26.23
2023-04-28T06:08:04.730Z,26.17
2023-04-28T06:09:04.704Z,26.16
2023-04-28T06:10:04.721Z,26.14
2023-04-28T06:11:04.692Z,26.12
2023-04-28T06:12:04.685Z,26.10
2023-04-28T06:13:04.680Z,26.08
2023-04-28T06:14:04.736Z,26.01
2023-04-28T06:15:04.706Z,25.99
2023-04-28T06:16:04.682Z,25.96
2023-04-28T06:17:04.653Z,25.93
2023-04-28T06:18:04.732Z,25.90
2023-04-28T06:19:04.639Z,25.90
2023-04-28T06:20:04.690Z,25.86
2023-04-28T06:21:04.636Z,25.85
2023-04-28T06:22:04.602Z,25.83
2023-04-28T06:23:04.629Z,25.79
2023-04-28T06:24:04.579Z,25.80
2023-04-28T06:25:04.622Z,25.77
2023-04-28T06:26:04.613Z,25.75
2023-04-28T06:27:04.748Z,25.76
2023-04-28T06:28:04.744Z,25.75
2023-04-28T06:29:04.729Z,25.76
2023-04-28T06:30:04.773Z,25.72
2023-04-28T06:31:04.788Z,25.72
2023-04-28T06:32:04.767Z,25.70
2023-04-28T06:33:04.873Z,25.72
2023-04-28T06:34:04.973Z,25.68
2023-04-28T06:35:05.034Z,25.69
2023-04-28T06:36:05.063Z,25.66
2023-04-28T06:37:05.083Z,25.66
2023-04-28T06:38:05.099Z,25.65
2023-04-28T06:39:05.107Z,25.64
2023-04-28T06:40:05.090Z,25.62
2023-04-28T06:41:05.089Z,25.64
2023-04-28T06:42:05.110Z,25.61
2023-04-28T06:43:05.157Z,25.66
2023-04-28T06:44:05.168Z,25.66
2023-04-28T06:45:05.191Z,25.69
2023-04-28T06:46:05.308Z,25.69
2023-04-28T06:47:05.487Z,25.72
2023-04-28T06:48:05.897Z,25.76
2023-04-28T06:49:05.548Z,25.82
2023-04-28T06:50:05.575Z,25.83
2023-04-28T06:51:05.640Z,25.90
2023-04-28T06:52:05.683Z,25.95
2023-04-28T06:53:05.776Z,26.03
2023-04-28T06:54:05.784Z,26.04
2023-04-28T06:55:05.805Z,26.12
2023-04-28T06:56:05.864Z,26.16
2023-04-28T06:57:05.919Z,26.19
2023-04-28T06:58:05.975Z,26.20
2023-04-28T06:59:05.993Z,26.26
2023-04-28T07:00:06.127Z,26.27
2023-04-28T07:01:06.106Z,26.31
2023-04-28T07:02:06.199Z,26.33
2023-04-28T07:03:06.351Z,26.37
2023-04-28T07:04:06.407Z,26.40
2023-04-28T07:05:06.253Z,26.44
2023-04-28T07:06:06.230Z,26.45
2023-04-28T07:07:06.291Z,26.50
2023-04-28T07:08:06.323Z,26.52
2023-04-28T07:09:06.343Z,26.54
2023-04-28T07:10:06.332Z,26.54
2023-04-28T07:11:06.400Z,26.56
2023-04-28T07:12:06.429Z,26.62
2023-04-28T07:13:06.462Z,26.65
2023-04-28T07:14:06.661Z,26.65
2023-04-28T07:15:06.574Z,26.67
2023-04-28T07:16:06.600Z,26.69
2023-04-28T07:17:06.541Z,26.69
2023-04-28T07:18:06.615Z,26.71
2023-04-28T07:19:06.589Z,26.72
2023-04-28T07:20:06.633Z,26.71
2023-04-28T07:21:06.715Z,26.71
2023-04-28T07:22:06.724Z,26.72
2023-04-28T07:23:06.766Z,26.74
2023-04-28T07:24:06.761Z,26.72
2023-04-28T07:25:06.806Z,26.71
2023-04-28T07:26:06.812Z,26.69
2023-04-28T07:27:06.907Z,26.68
2023-04-28T07:28:06.890Z,26.71
2023-04-28T07:29:06.918Z,26.68
2023-04-28T07:30:19.040Z,26.69
2023-04-28T07:31:08.306Z,26.69
2023-04-28T07:32:07.708Z,26.68
2023-04-28T07:33:06.994Z,26.65
2023-04-28T07:34:06.934Z,26.67
2023-04-28T07:35:06.921Z,26.65
2023-04-28T07:36:06.906Z,26.63
2023-04-28T07:37:06.938Z,26.65
2023-04-28T07:38:06.923Z,26.67
2023-04-28T07:39:06.879Z,26.67
2023-04-28T07:40:06.872Z,26.65
2023-04-28T07:41:08.776Z,26.65
2023-04-28T07:42:06.886Z,26.63
2023-04-28T07:43:07.358Z,26.62
2023-04-28T07:44:06.857Z,26.68
2023-04-28T07:45:06.869Z,26.71
2023-04-28T07:46:06.931Z,26.69
2023-04-28T07:47:06.849Z,26.68
2023-04-28T07:48:06.855Z,26.69
2023-04-28T07:49:06.815Z,26.72
2023-04-28T07:50:06.818Z,26.68
2023-04-28T07:51:06.790Z,26.71
2023-04-28T07:52:06.792Z,26.71
2023-04-28T07:53:06.797Z,26.69
2023-04-28T07:54:06.779Z,26.68
2023-04-28T07:55:06.779Z,26.68
2023-04-28T07:56:06.730Z,26.67
2023-04-28T07:57:06.797Z,26.68
2023-04-28T07:58:06.749Z,26.68
2023-04-28T07:59:06.739Z,26.65
2023-04-28T08:00:06.728Z,26.65
2023-04-28T08:01:06.696Z,26.62
2023-04-28T08:02:06.724Z,26.59
2023-04-28T08:03:06.803Z,26.63
2023-04-28T08:04:06.931Z,26.63
2023-04-28T08:05:06.799Z,26.61
2023-04-28T08:06:06.766Z,26.59
2023-04-28T08:07:06.660Z,26.59
2023-04-28T08:08:06.674Z,26.58
2023-04-28T08:09:06.661Z,26.58
2023-04-28T08:10:06.688Z,26.58
2023-04-28T08:11:06.648Z,26.59
2023-04-28T08:12:06.680Z,26.58
2023-04-28T08:13:06.680Z,26.56
2023-04-28T08:14:06.616Z,26.56
2023-04-28T08:15:06.647Z,26.55
2023-04-28T08:16:06.682Z,26.58
2023-04-28T08:17:06.650Z,26.59
2023-04-28T08:18:06.714Z,26.56
2023-04-28T08:19:06.780Z,26.55
2023-04-28T08:20:06.750Z,26.54
2023-04-28T08:21:06.788Z,26.54
2023-04-28T08:22:06.813Z,26.56
2023-04-28T08:23:06.874Z,26.55
2023-04-28T08:24:06.935Z,26.56
2023-04-28T08:25:06.911Z,26.54
2023-04-28T08:26:07.007Z,26.54
2023-04-28T08:27:07.021Z,26.51
2023-04-28T08:28:07.035Z,26.52
2023-04-28T08:29:07.083Z,26.52
2023-04-28T08:30:07.178Z,26.52
2023-04-28T08:31:07.168Z,26.48
2023-04-28T08:32:07.183Z,26.48
2023-04-28T08:33:07.703Z,26.47
2023-04-28T08:34:07.293Z,26.44
2023-04-28T08:35:07.331Z,26.45
2023-04-28T08:36:07.347Z,26.44
2023-04-28T08:37:07.369Z,26.41
2023-04-28T08:38:07.426Z,26.45
2023-04-28T08:39:07.497Z,26.45
2023-04-28T08:40:07.504Z,26.48
2023-04-28T08:41:07.538Z,26.48
2023-04-28T08:42:07.551Z,26.52
2023-04-28T08:43:07.644Z,26.58
2023-04-28T08:44:07.682Z,26.61
2023-04-28T08:45:07.698Z,26.68
2023-04-28T08:46:07.745Z,26.72
2023-04-28T08:47:07.716Z,26.74
2023-04-28T08:48:07.806Z,26.77
2023-04-28T08:49:07.787Z,26.83
2023-04-28T08:50:10.379Z,26.89
2023-04-28T08:51:08.077Z,26.96
2023-04-28T08:52:07.960Z,26.99
2023-04-28T08:53:07.968Z,27.02
2023-04-28T08:55:07.955Z,27.11
2023-04-28T08:56:07.942Z,27.13
2023-04-28T08:57:07.934Z,27.20
2023-04-28T08:58:08.408Z,27.23
2023-04-28T08:59:07.973Z,27.26
2023-04-28T09:00:07.944Z,27.23
2023-04-28T09:01:07.937Z,27.26
2023-04-28T09:02:07.969Z,27.27
2023-04-28T09:03:08.222Z,27.33
2023-04-28T09:04:08.009Z,27.36
2023-04-28T09:05:08.062Z,27.38
2023-04-28T09:06:07.855Z,27.40
2023-04-28T09:07:07.859Z,27.43
2023-04-28T09:08:07.891Z,27.45
2023-04-28T09:09:07.875Z,27.48
2023-04-28T09:10:07.857Z,27.47
2023-04-28T09:11:07.845Z,27.51
2023-04-28T09:12:07.881Z,27.54
2023-04-28T09:13:07.902Z,27.54
2023-04-28T09:14:07.827Z,27.57
2023-04-28T09:15:07.859Z,27.57
2023-04-28T09:16:07.858Z,27.61
2023-04-28T09:17:07.827Z,27.61
2023-04-28T09:18:07.955Z,27.64
2023-04-28T09:19:07.781Z,27.65
2023-04-28T09:20:07.787Z,27.68
2023-04-28T09:21:08.199Z,27.71
2023-04-28T09:22:24.644Z,27.68
2023-04-28T09:23:08.770Z,27.72
2023-04-28T09:24:07.758Z,27.71
2023-04-28T09:25:07.759Z,27.77
2023-04-28T09:26:07.871Z,27.75
2023-04-28T09:27:07.760Z,27.81
2023-04-28T09:28:07.760Z,27.82
2023-04-28T09:29:07.738Z,27.84
2023-04-28T09:30:07.725Z,27.84
2023-04-28T09:31:07.702Z,27.82
2023-04-28T09:32:07.754Z,27.84
2023-04-28T09:33:09.368Z,27.87
2023-04-28T09:34:07.687Z,27.92
2023-04-28T09:35:07.686Z,27.93
2023-04-28T09:36:07.671Z,27.91
2023-04-28T09:37:07.711Z,27.87
2023-04-28T09:38:07.704Z,27.78
2023-04-28T09:39:07.712Z,27.71
2023-04-28T09:40:07.681Z,27.58
2023-04-28T09:41:07.623Z,27.50
2023-04-28T09:42:07.740Z,27.44
2023-04-28T09:43:21.019Z,27.36
2023-04-28T09:44:08.626Z,27.33
2023-04-28T09:45:07.633Z,27.37
2023-04-28T09:46:07.687Z,27.34
2023-04-28T09:47:07.619Z,27.36
2023-04-28T09:48:07.680Z,27.34
2023-04-28T09:49:07.573Z,27.34
2023-04-28T09:50:07.583Z,27.36
2023-04-28T09:51:10.967Z,27.40
2023-04-28T09:52:07.573Z,27.41
2023-04-28T09:53:07.634Z,27.41
2023-04-28T09:54:07.667Z,27.40
2023-04-28T09:55:07.531Z,27.40
2023-04-28T09:56:08.306Z,27.40
2023-04-28T09:57:07.975Z,27.41
2023-04-28T09:58:07.533Z,27.40
2023-04-28T09:59:07.541Z,27.40
2023-04-28T10:00:07.536Z,27.44
2023-04-28T10:01:07.530Z,27.43
2023-04-28T10:02:22.497Z,27.41
2023-04-28T10:03:08.679Z,27.43
2023-04-28T10:04:07.654Z,27.43
2023-04-28T10:05:07.872Z,27.44
2023-04-28T10:06:07.511Z,27.44
2023-04-28T10:07:07.540Z,27.43
2023-04-28T10:08:07.548Z,27.43
2023-04-28T10:09:07.549Z,27.44
2023-04-28T10:10:07.499Z,27.43
2023-04-28T10:11:07.503Z,27.43
2023-04-28T10:12:07.541Z,27.41
2023-04-28T10:13:07.584Z,27.43
2023-04-28T10:14:07.651Z,27.43
2023-04-28T10:15:07.783Z,27.43
2023-04-28T10:16:07.840Z,27.40
2023-04-28T10:17:07.828Z,27.41
2023-04-28T10:18:07.963Z,27.40
2023-04-28T10:19:07.992Z,27.43
2023-04-28T10:20:07.986Z,27.40
2023-04-28T10:21:08.103Z,27.41
2023-04-28T10:22:08.133Z,27.40
2023-04-28T10:23:08.204Z,27.40
2023-04-28T10:24:08.285Z,27.38
2023-04-28T10:25:08.266Z,27.38
2023-04-28T10:26:08.328Z,27.40
2023-04-28T10:27:08.418Z,27.40
2023-04-28T10:28:08.461Z,27.38
2023-04-28T10:29:08.524Z,27.37
2023-04-28T10:30:19.178Z,27.37
2023-04-28T10:31:09.591Z,27.37
2023-04-28T10:32:08.548Z,27.37
2023-04-28T10:33:08.564Z,27.37
2023-04-28T10:34:08.560Z,27.34
2023-04-28T10:35:08.569Z,27.37
2023-04-28T10:36:08.618Z,27.38
2023-04-28T10:37:08.546Z,27.26
2023-04-28T10:38:08.524Z,27.10
2023-04-28T10:39:08.541Z,26.97
2023-04-28T10:40:08.523Z,26.79
2023-04-28T10:41:08.571Z,26.55
2023-04-28T10:42:08.541Z,26.47
2023-04-28T10:43:08.582Z,26.31
2023-04-28T10:44:08.602Z,26.20
2023-04-28T10:45:08.646Z,26.07
2023-04-28T10:46:08.725Z,26.04
2023-04-28T10:47:08.701Z,25.96
2023-04-28T10:48:08.759Z,25.86
2023-04-28T10:49:08.795Z,25.80
2023-04-28T10:50:08.842Z,25.75
2023-04-28T10:51:08.892Z,25.70
2023-04-28T10:52:08.967Z,25.66
2023-04-28T10:53:08.988Z,25.62
2023-04-28T10:54:09.011Z,25.61
2023-04-28T10:55:19.453Z,25.58
2023-04-28T10:56:10.084Z,25.53
2023-04-28T10:57:09.059Z,25.52
2023-04-28T10:58:09.075Z,25.49
2023-04-28T10:59:09.071Z,25.45
2023-04-28T11:00:09.063Z,25.45
2023-04-28T11:01:09.066Z,25.44
2023-04-28T11:02:09.191Z,25.41
2023-04-28T11:03:09.170Z,25.38
2023-04-28T11:04:09.167Z,25.38
2023-04-28T11:05:09.185Z,25.38
2023-04-28T11:06:09.038Z,25.38
2023-04-28T11:07:09.072Z,25.38
2023-04-28T11:08:09.114Z,25.37
2023-04-28T11:09:09.161Z,25.34
2023-04-28T11:10:09.179Z,25.38
2023-04-28T11:11:09.238Z,25.34
2023-04-28T11:12:09.256Z,25.38
2023-04-28T11:13:09.324Z,25.38
2023-04-28T11:14:09.381Z,25.38
2023-04-28T11:15:09.433Z,25.35
2023-04-28T11:16:09.510Z,25.37
2023-04-28T11:17:09.502Z,25.37
2023-04-28T11:18:09.629Z,25.37
2023-04-28T11:19:09.617Z,25.38
2023-04-28T11:20:09.682Z,25.35
2023-04-28T11:21:09.716Z,25.34
2023-04-28T11:22:09.776Z,25.35
2023-04-28T11:23:09.774Z,25.35
2023-04-28T11:24:09.858Z,25.31
2023-04-28T11:25:09.891Z,25.34
2023-04-28T11:26:09.969Z,25.32
2023-04-28T11:27:10.018Z,25.31
2023-04-28T11:28:10.116Z,25.32
2023-04-28T11:29:10.487Z,25.31
2023-04-28T11:30:10.263Z,25.35
2023-04-28T11:31:10.189Z,25.39
2023-04-28T11:32:10.330Z,25.42
2023-04-28T11:33:10.334Z,25.49
2023-04-28T11:34:10.434Z,25.55
2023-04-28T11:35:10.280Z,25.59
2023-04-28T11:36:10.302Z,25.64
2023-04-28T11:37:10.354Z,25.70
2023-04-28T11:38:10.336Z,25.75
2023-04-28T11:39:10.383Z,25.83
2023-04-28T11:40:10.473Z,25.87
2023-04-28T11:41:10.503Z,25.95
2023-04-28T11:42:10.570Z,25.99
2023-04-28T11:43:10.611Z,26.06
2023-04-28T11:44:10.650Z,26.07
2023-04-28T11:45:10.680Z,26.13
2023-04-28T11:46:10.804Z,26.19
2023-04-28T11:47:10.850Z,26.21
2023-04-28T11:48:10.910Z,26.27
2023-04-28T11:49:10.869Z,26.30
2023-04-28T11:50:10.890Z,26.37
2023-04-28T11:51:10.937Z,26.40
2023-04-28T11:52:10.956Z,26.45
2023-04-28T11:53:10.997Z,26.48
2023-04-28T11:54:11.013Z,26.51
2023-04-28T11:55:11.036Z,26.54
2023-04-28T11:56:11.098Z,26.58
2023-04-28T11:57:11.096Z,26.59
2023-04-28T11:58:11.136Z,26.65
2023-04-28T11:59:11.162Z,26.69
2023-04-28T12:00:11.206Z,26.69
2023-04-28T12:01:11.202Z,26.72
2023-04-28T12:02:11.270Z,26.74
2023-04-28T12:03:11.478Z,26.75
2023-04-28T12:04:11.499Z,26.78
2023-04-28T12:05:11.327Z,26.79
2023-04-28T12:06:11.338Z,26.82
2023-04-28T12:07:11.359Z,26.86
2023-04-28T12:08:11.372Z,26.86
2023-04-28T12:09:11.388Z,26.86
2023-04-28T12:10:11.438Z,26.89
2023-04-28T12:11:11.433Z,26.90
2023-04-28T12:12:11.436Z,26.92
2023-04-28T12:13:11.473Z,26.95
2023-04-28T12:14:11.470Z,26.96
2023-04-28T12:15:11.468Z,26.97
2023-04-28T12:16:11.483Z,26.99
2023-04-28T12:17:11.515Z,27.02
2023-04-28T12:18:11.532Z,27.02
2023-04-28T12:19:11.501Z,27.03
2023-04-28T12:20:11.549Z,27.05
2023-04-28T12:21:11.532Z,27.06
2023-04-28T12:22:11.548Z,27.07
2023-04-28T12:23:11.594Z,27.07
2023-04-28T12:24:11.576Z,27.10
2023-04-28T12:25:11.578Z,27.13
2023-04-28T12:26:11.605Z,27.13
2023-04-28T12:27:11.588Z,27.16
2023-04-28T12:28:11.555Z,27.18
2023-04-28T12:29:11.558Z,27.22
2023-04-28T12:30:11.564Z,27.22
2023-04-28T12:31:11.583Z,27.23
2023-04-28T12:32:11.568Z,27.24
2023-04-28T12:33:11.606Z,27.27
2023-04-28T12:34:11.593Z,27.29
2023-04-28T12:35:11.623Z,27.29
2023-04-28T12:36:11.643Z,27.32
2023-04-28T12:37:11.669Z,27.36
2023-04-28T12:38:11.678Z,27.34
2023-04-28T12:39:11.723Z,27.41
2023-04-28T12:40:11.736Z,27.38
2023-04-28T12:41:11.778Z,27.41
2023-04-28T12:42:11.850Z,27.43
2023-04-28T12:43:11.869Z,27.44
2023-04-28T12:44:11.893Z,27.44
2023-04-28T12:45:11.940Z,27.45
2023-04-28T12:46:12.054Z,27.47
2023-04-28T12:47:12.032Z,27.48
2023-04-28T12:48:12.103Z,27.50
2023-04-28T12:49:12.116Z,27.50
2023-04-28T12:50:12.195Z,27.51
2023-04-28T12:51:12.247Z,27.51
2023-04-28T12:52:12.293Z,27.53
2023-04-28T12:53:12.356Z,27.51